Time;durP1;ratioP1;P1;durP2;ratioP2;P2;SDS_P1;SDS_P2;PMS_P1;PMS_P2;Temp;Humidity;BMP_temperature;BMP_pressure;BME280_temperature;BME280_humidity;BME280_pressure;Samples;Min_cycle;Max_cycle;Signal;HPM_P1;HPM_P2
2023/01/08 00:02:15;;;;;;;14.00;3.88;;;14.20;90.60;;;;;;7381842;19;20011;-79
2023/01/08 00:04:44;;;;;;;10.95;3.97;;;14.20;90.50;;;;;;7386652;19;20105;-78
2023/01/08 00:07:13;;;;;;;15.00;3.95;;;14.20;90.50;;;;;;7363343;19;20021;-78
2023/01/08 00:09:44;;;;;;;14.38;4.13;;;14.20;90.50;;;;;;7366420;19;20087;-77
2023/01/08 00:12:13;;;;;;;12.80;3.88;;;14.20;90.50;;;;;;7373312;19;20116;-78
2023/01/08 00:14:42;;;;;;;16.20;4.25;;;14.20;90.60;;;;;;7372045;19;20513;-78
2023/01/08 00:17:10;;;;;;;14.15;4.55;;;14.10;90.60;;;;;;7392823;19;20010;-78
2023/01/08 00:19:40;;;;;;;12.15;4.03;;;14.10;90.60;;;;;;7371945;19;20399;-78
2023/01/08 00:22:09;;;;;;;11.70;3.72;;;14.20;90.60;;;;;;7371785;19;20584;-78
2023/01/08 00:24:38;;;;;;;15.65;4.40;;;14.20;90.40;;;;;;7371608;19;20020;-78
2023/01/08 00:27:10;;;;;;;11.45;3.95;;;14.30;90.40;;;;;;7371859;19;20022;-78
2023/01/08 00:29:39;;;;;;;16.23;4.63;;;14.20;90.40;;;;;;7372393;19;20014;-78
2023/01/08 00:32:08;;;;;;;11.68;3.90;;;14.10;90.40;;;;;;7389571;19;20374;-78
2023/01/08 00:34:36;;;;;;;12.20;3.88;;;14.10;90.40;;;;;;7372133;19;20048;-77
2023/01/08 00:37:05;;;;;;;8.70;3.67;;;13.90;90.60;;;;;;7370173;19;20022;-77
2023/01/08 00:39:34;;;;;;;9.63;4.35;;;14.00;90.70;;;;;;7370763;19;20027;-77
2023/01/08 00:42:05;;;;;;;16.48;5.28;;;14.00;90.50;;;;;;7368957;19;20018;-77
2023/01/08 00:44:37;;;;;;;11.38;4.05;;;13.90;90.50;;;;;;7371990;19;20078;-76
2023/01/08 00:47:05;;;;;;;15.65;4.63;;;14.10;90.50;;;;;;7393797;19;20095;-77
2023/01/08 00:49:34;;;;;;;11.15;3.92;;;14.20;90.30;;;;;;7371037;19;20833;-77
2023/01/08 00:52:03;;;;;;;10.32;3.90;;;14.20;90.10;;;;;;7372603;19;20010;-77
2023/01/08 00:54:32;;;;;;;10.43;3.58;;;14.00;90.20;;;;;;7368549;19;20015;-77
2023/01/08 00:57:00;;;;;;;8.45;3.50;;;14.10;90.30;;;;;;7370299;19;20014;-76
2023/01/08 00:59:29;;;;;;;15.35;3.80;;;14.10;90.10;;;;;;7370591;19;20070;-78
2023/01/08 01:02:00;;;;;;;11.00;3.40;;;14.00;90.20;;;;;;7390149;19;20086;-77
2023/01/08 01:04:29;;;;;;;12.30;3.83;;;14.00;90.20;;;;;;7371440;19;20018;-77
2023/01/08 01:06:58;;;;;;;10.98;3.60;;;14.10;90.10;;;;;;7370691;19;20039;-77
2023/01/08 01:09:27;;;;;;;15.15;3.45;;;14.10;90.00;;;;;;7371721;19;20379;-77
2023/01/08 01:11:56;;;;;;;9.70;3.80;;;14.10;89.80;;;;;;7371512;19;20451;-77
2023/01/08 01:14:25;;;;;;;10.35;3.70;;;14.10;90.10;;;;;;7373755;19;20018;-78
2023/01/08 01:16:54;;;;;;;10.10;3.30;;;13.90;90.10;;;;;;7391213;19;20312;-78
2023/01/08 01:19:25;;;;;;;8.02;3.28;;;13.80;90.20;;;;;;7368822;19;20018;-77
2023/01/08 01:21:54;;;;;;;11.60;3.38;;;13.80;90.40;;;;;;7367263;19;20023;-77
2023/01/08 01:24:26;;;;;;;10.02;3.40;;;13.70;90.50;;;;;;7371109;19;20010;-77
2023/01/08 01:26:56;;;;;;;10.30;3.72;;;13.80;90.40;;;;;;7372981;19;20014;-79
2023/01/08 01:29:25;;;;;;;11.88;3.17;;;13.90;90.30;;;;;;7371432;19;20078;-79
2023/01/08 01:31:54;;;;;;;8.07;3.33;;;13.80;90.70;;;;;;7400883;19;20029;-79
2023/01/08 01:34:25;;;;;;;10.70;2.95;;;13.80;90.40;;;;;;7380624;19;20023;-79
2023/01/08 01:36:54;;;;;;;9.10;2.90;;;13.60;90.50;;;;;;7377271;19;20086;-79
2023/01/08 01:39:22;;;;;;;10.23;3.05;;;13.70;90.50;;;;;;7373264;19;20640;-78
2023/01/08 01:41:52;;;;;;;14.82;3.25;;;13.50;90.80;;;;;;7370957;19;20086;-79
2023/01/08 01:44:37;;;;;;;7.30;3.38;;;13.50;91.00;;;;;;7372093;19;20039;-79
2023/01/08 01:47:15;;;;;;;10.13;3.53;;;13.70;90.80;;;;;;7399533;19;20018;-79
2023/01/08 01:49:54;;;;;;;6.53;2.72;;;13.80;90.40;;;;;;7378639;19;20095;-79
2023/01/08 01:52:24;;;;;;;7.72;2.95;;;13.70;90.40;;;;;;7374654;19;20031;-79
2023/01/08 01:54:55;;;;;;;7.03;2.80;;;13.80;90.20;;;;;;7372367;19;20641;-80
2023/01/08 01:57:25;;;;;;;9.65;3.13;;;13.50;90.40;;;;;;7369031;19;20031;-80
2023/01/08 01:59:57;;;;;;;11.15;3.17;;;13.20;91.10;;;;;;7368250;19;20438;-81
2023/01/08 02:02:25;;;;;;;16.38;3.22;;;13.40;90.90;;;;;;7371916;19;20239;-80
2023/01/08 02:04:57;;;;;;;66.85;33.55;;;13.60;90.50;;;;;;7388399;19;20035;-81
2023/01/08 02:07:33;;;;;;;75.38;29.92;;;13.70;90.40;;;;;;7365580;19;20090;-79
2023/01/08 02:10:07;;;;;;;8.20;2.95;;;13.70;90.40;;;;;;7366794;19;20027;-80
2023/01/08 02:12:43;;;;;;;8.90;2.90;;;13.50;90.60;;;;;;7368279;19;20019;-80
2023/01/08 02:15:18;;;;;;;9.73;3.28;;;13.50;91.10;;;;;;7370199;19;20014;-83
2023/01/08 02:17:54;;;;;;;7.72;2.50;;;13.40;90.70;;;;;;7367406;19;20158;-80
2023/01/08 02:20:31;;;;;;;13.93;2.95;;;13.50;90.70;;;;;;7370097;19;20510;-81
2023/01/08 02:23:28;;;;;;;8.70;2.60;;;13.40;90.70;;;;;;7391805;19;20517;-81
2023/01/08 02:26:25;;;;;;;10.90;2.72;;;13.60;90.80;;;;;;7365251;19;20049;-80
2023/01/08 02:28:57;;;;;;;9.98;2.67;;;13.70;90.90;;;;;;7368192;19;20166;-82
2023/01/08 02:31:28;;;;;;;9.82;3.00;;;13.70;90.40;;;;;;7371016;19;20084;-81
2023/01/08 02:33:57;;;;;;;12.43;2.92;;;13.40;90.60;;;;;;7376328;19;20022;-81
2023/01/08 02:36:35;;;;;;;7.75;2.33;;;13.60;90.70;;;;;;7371651;19;20014;-80
2023/01/08 02:39:42;;;;;;;12.20;2.60;;;13.40;90.60;;;;;;7368684;19;20086;-80
2023/01/08 02:42:23;;;;;;;8.25;2.40;;;13.60;90.60;;;;;;7366016;19;20094;-81
2023/01/08 02:45:03;;;;;;;12.35;2.75;;;13.50;90.60;;;;;;7366405;19;20038;-80
2023/01/08 02:47:36;;;;;;;10.02;2.83;;;13.60;90.50;;;;;;7366351;19;20771;-80
2023/01/08 02:50:17;;;;;;;13.32;3.22;;;13.80;90.40;;;;;;7385528;19;20026;-80
2023/01/08 02:52:54;;;;;;;14.20;2.85;;;13.80;90.20;;;;;;7367755;19;20044;-80
2023/01/08 02:55:27;;;;;;;12.25;2.80;;;13.80;90.30;;;;;;7367332;19;20022;-80
2023/01/08 02:58:02;;;;;;;14.38;2.83;;;13.80;90.20;;;;;;7364763;19;20010;-80
2023/01/08 03:00:33;;;;;;;7.90;2.63;;;13.80;90.10;;;;;;7365195;19;20086;-80
2023/01/08 03:03:09;;;;;;;9.77;3.00;;;13.90;90.10;;;;;;7363861;19;20376;-81
2023/01/08 03:05:39;;;;;;;11.65;2.80;;;13.80;90.10;;;;;;7365401;19;20026;-80
2023/01/08 03:08:10;;;;;;;7.13;2.07;;;13.80;90.20;;;;;;7386703;19;20438;-80
2023/01/08 03:10:51;;;;;;;11.88;2.42;;;13.70;90.40;;;;;;7369610;19;20035;-81
2023/01/08 03:13:28;;;;;;;11.98;2.58;;;13.80;90.40;;;;;;7367372;19;20311;-80
2023/01/08 03:16:00;;;;;;;15.02;2.47;;;13.90;90.30;;;;;;7368048;19;20377;-80
2023/01/08 03:18:36;;;;;;;12.43;2.47;;;13.70;90.40;;;;;;7367745;19;20111;-80
2023/01/08 03:21:07;;;;;;;10.57;2.35;;;13.20;90.70;;;;;;7367833;19;20097;-81
2023/01/08 03:23:38;;;;;;;8.60;2.08;;;13.30;91.20;;;;;;7366817;19;20149;-80
2023/01/08 03:26:08;;;;;;;8.57;2.08;;;13.50;90.90;;;;;;7388107;19;20077;-80
2023/01/08 03:28:46;;;;;;;10.65;2.15;;;13.60;90.60;;;;;;7365445;19;20087;-80
2023/01/08 03:31:17;;;;;;;8.93;2.70;;;13.70;90.50;;;;;;7365368;19;20125;-80
2023/01/08 03:33:48;;;;;;;9.48;2.28;;;13.70;90.40;;;;;;7365685;19;20086;-80
2023/01/08 03:36:20;;;;;;;17.80;2.45;;;13.70;90.40;;;;;;7365308;19;20011;-79
2023/01/08 03:38:54;;;;;;;5.10;2.40;;;13.70;90.40;;;;;;7366295;19;20761;-80
2023/01/08 03:41:29;;;;;;;12.05;2.20;;;13.80;90.20;;;;;;7366855;19;20029;-79
2023/01/08 03:44:00;;;;;;;9.07;2.38;;;13.90;90.10;;;;;;7385591;19;20082;-81
2023/01/08 03:46:30;;;;;;;;;;;13.90;90.00;;;;;;7372462;19;20151;-79
2023/01/08 03:49:01;;;;;;;10.68;3.13;;;14.00;89.90;;;;;;7371918;19;20287;-78
2023/01/08 03:51:30;;;;;;;25.27;7.75;;;13.90;90.00;;;;;;7371740;19;20019;-78
2023/01/08 03:54:04;;;;;;;9.05;2.42;;;13.80;90.10;;;;;;7372157;19;20090;-79
2023/01/08 03:56:32;;;;;;;15.98;4.55;;;13.50;90.30;;;;;;7373585;19;20023;-79
2023/01/08 03:59:04;;;;;;;7.38;2.70;;;13.60;90.30;;;;;;7390550;19;20014;-79
2023/01/08 04:01:32;;;;;;;;;;;13.60;90.20;;;;;;7371225;19;20547;-78
2023/01/08 04:04:01;;;;;;;7.10;2.60;;;13.80;90.10;;;;;;7370703;19;20481;-77
2023/01/08 04:06:30;;;;;;;10.48;2.97;;;13.60;90.10;;;;;;7367483;19;20118;-77
2023/01/08 04:08:58;;;;;;;10.85;3.30;;;13.60;90.20;;;;;;7367293;19;20082;-78
2023/01/08 04:11:28;;;;;;;7.03;2.35;;;13.50;90.40;;;;;;7368014;19;20479;-77
2023/01/08 04:13:57;;;;;;;6.05;2.47;;;13.40;90.40;;;;;;7388196;19;20021;-78
2023/01/08 04:16:28;;;;;;;9.82;2.65;;;13.20;90.60;;;;;;7367077;19;20018;-78
2023/01/08 04:18:57;;;;;;;9.63;2.22;;;13.40;90.50;;;;;;7365411;19;20458;-78
2023/01/08 04:21:27;;;;;;;6.40;1.73;;;13.40;90.20;;;;;;7367203;19;20021;-77
2023/01/08 04:23:56;;;;;;;17.40;2.83;;;13.60;90.20;;;;;;7367019;19;20129;-77
2023/01/08 04:26:26;;;;;;;9.48;2.17;;;13.60;90.10;;;;;;7364583;19;20014;-77
2023/01/08 04:28:54;;;;;;;7.25;2.15;;;13.60;90.00;;;;;;7388526;19;20489;-78
2023/01/08 04:31:23;;;;;;;9.75;2.35;;;13.50;90.00;;;;;;7366208;19;20085;-78
2023/01/08 04:33:55;;;;;;;8.55;2.30;;;13.50;90.10;;;;;;7369736;19;20029;-78
2023/01/08 04:36:23;;;;;;;11.05;2.70;;;13.50;90.00;;;;;;7370542;19;20082;-78
2023/01/08 04:38:52;;;;;;;9.82;2.10;;;13.50;90.00;;;;;;7371135;19;20122;-78
2023/01/08 04:41:21;;;;;;;9.05;2.15;;;13.60;90.00;;;;;;7369165;19;20760;-78
2023/01/08 04:43:50;;;;;;;8.88;2.00;;;13.50;90.10;;;;;;7392283;19;20027;-78
2023/01/08 04:46:20;;;;;;;7.38;1.98;;;13.60;90.10;;;;;;7373907;19;20082;-78
2023/01/08 04:48:48;;;;;;;12.85;2.47;;;13.70;90.00;;;;;;7377502;19;20018;-77
2023/01/08 04:51:20;;;;;;;7.93;2.20;;;13.70;89.70;;;;;;7378409;19;20018;-78
2023/01/08 04:53:49;;;;;;;10.07;2.30;;;13.70;89.40;;;;;;7376653;19;20813;-78
2023/01/08 04:56:18;;;;;;;11.20;2.20;;;13.80;89.50;;;;;;7367151;19;20021;-78
2023/01/08 04:58:46;;;;;;;9.48;2.00;;;13.80;89.40;;;;;;7389529;19;20078;-77
2023/01/08 05:01:20;;;;;;;10.85;2.03;;;13.70;89.50;;;;;;7371810;19;20035;-78
2023/01/08 05:03:49;;;;;;;11.35;2.00;;;13.60;89.80;;;;;;7367817;19;20086;-78
2023/01/08 05:06:20;;;;;;;7.32;1.70;;;13.60;89.70;;;;;;7369592;19;20034;-78
2023/01/08 05:08:49;;;;;;;5.45;1.70;;;13.60;90.00;;;;;;7370088;19;20035;-77
2023/01/08 05:11:18;;;;;;;12.55;2.10;;;13.50;90.20;;;;;;7365913;19;20040;-77
2023/01/08 05:13:50;;;;;;;4.90;2.13;;;13.70;90.40;;;;;;7390095;19;20090;-77
2023/01/08 05:16:19;;;;;;;7.65;1.90;;;13.70;90.30;;;;;;7368426;19;20850;-77
2023/01/08 05:18:48;;;;;;;6.97;1.70;;;13.50;90.70;;;;;;7366381;19;20014;-77
2023/01/08 05:21:19;;;;;;;5.70;1.88;;;13.50;90.90;;;;;;7366990;19;20388;-77
2023/01/08 05:23:49;;;;;;;;;;;13.60;90.80;;;;;;7366612;19;20019;-78
2023/01/08 05:26:19;;;;;;;3.50;1.65;;;13.80;90.80;;;;;;7370137;19;19926;-77
2023/01/08 05:28:48;;;;;;;7.32;1.85;;;13.70;90.60;;;;;;7384380;19;20052;-78
2023/01/08 05:31:18;;;;;;;5.30;1.80;;;13.70;90.60;;;;;;7364536;19;20109;-78
2023/01/08 05:33:46;;;;;;;11.70;1.80;;;13.80;90.50;;;;;;7365726;19;20015;-78
2023/01/08 05:36:15;;;;;;;3.58;0.85;;;13.70;91.00;;;;;;7363151;19;20126;-77
2023/01/08 05:38:47;;;;;;;2.67;0.88;;;12.60;88.80;;;;;;7365149;19;20915;-77
2023/01/08 05:41:16;;;;;;;6.03;0.90;;;12.30;90.20;;;;;;7383795;19;20097;-77
2023/01/08 05:43:44;;;;;;;4.70;0.90;;;12.00;90.10;;;;;;7386500;19;20011;-77
2023/01/08 05:46:13;;;;;;;3.53;0.70;;;12.00;90.30;;;;;;7365992;19;20010;-77
2023/01/08 05:48:42;;;;;;;3.55;0.73;;;12.00;90.30;;;;;;7364121;19;20090;-77
2023/01/08 05:51:11;;;;;;;4.68;0.75;;;12.00;90.50;;;;;;7365251;19;20043;-78
2023/01/08 05:53:40;;;;;;;2.70;0.40;;;12.30;90.80;;;;;;7365488;19;20122;-77
2023/01/08 05:56:13;;;;;;;3.25;0.52;;;12.30;90.50;;;;;;7389036;19;20117;-79
2023/01/08 05:58:42;;;;;;;1.70;0.65;;;12.40;90.40;;;;;;7364598;19;20011;-79
2023/01/08 06:01:14;;;;;;;3.70;0.70;;;12.50;90.40;;;;;;7366112;19;20035;-77
2023/01/08 06:03:43;;;;;;;5.85;0.73;;;12.50;90.10;;;;;;7365452;19;20010;-78
2023/01/08 06:06:14;;;;;;;1.23;0.50;;;12.60;90.50;;;;;;7363684;19;20017;-78
2023/01/08 06:08:43;;;;;;;1.75;0.47;;;12.60;90.10;;;;;;7362370;19;20019;-78
2023/01/08 06:11:15;;;;;;;1.05;0.50;;;12.60;90.40;;;;;;7385809;19;20025;-78
2023/01/08 06:13:45;;;;;;;3.60;0.50;;;12.70;90.50;;;;;;7363606;19;20426;-77
2023/01/08 06:16:16;;;;;;;5.32;0.57;;;12.60;90.10;;;;;;7363993;19;20078;-77
2023/01/08 06:18:45;;;;;;;2.38;0.60;;;12.50;90.00;;;;;;7364357;19;20018;-77
2023/01/08 06:21:14;;;;;;;2.10;0.50;;;12.50;90.10;;;;;;7364460;19;20089;-77
2023/01/08 06:23:43;;;;;;;2.80;0.50;;;12.50;90.10;;;;;;7363591;19;20549;-77
2023/01/08 06:26:16;;;;;;;2.30;0.38;;;12.30;90.00;;;;;;7382444;19;20101;-77
2023/01/08 06:28:45;;;;;;;4.00;0.80;;;12.20;90.30;;;;;;7362963;19;20014;-78
2023/01/08 06:31:14;;;;;;;2.83;0.55;;;12.30;90.50;;;;;;7362460;19;20139;-78
2023/01/08 06:33:43;;;;;;;2.58;0.55;;;12.30;90.60;;;;;;7365098;19;20017;-78
2023/01/08 06:36:12;;;;;;;3.35;0.55;;;12.30;90.70;;;;;;7363794;19;20118;-77
2023/01/08 06:38:41;;;;;;;1.48;0.65;;;12.30;90.80;;;;;;7362528;19;20090;-79
2023/01/08 06:41:11;;;;;;;2.63;0.75;;;12.40;90.80;;;;;;7386234;19;20576;-77
2023/01/08 06:43:43;;;;;;;3.03;0.60;;;12.40;90.80;;;;;;7363135;19;20018;-77
2023/01/08 06:46:13;;;;;;;3.65;0.75;;;12.40;90.70;;;;;;7363053;19;20064;-78
2023/01/08 06:48:42;;;;;;;4.90;0.85;;;12.50;90.70;;;;;;7363030;19;20085;-78
2023/01/08 06:51:11;;;;;;;2.00;0.70;;;12.50;90.80;;;;;;7363254;19;20078;-78
2023/01/08 06:53:40;;;;;;;2.17;0.73;;;12.50;90.70;;;;;;7363735;19;20030;-78
2023/01/08 06:56:10;;;;;;;1.30;0.73;;;12.60;90.70;;;;;;7382757;19;20121;-78
2023/01/08 06:58:42;;;;;;;4.85;0.88;;;12.60;90.70;;;;;;7362844;19;20007;-78
2023/01/08 07:01:15;;;;;;;5.20;1.23;;;12.50;90.70;;;;;;7363429;19;20007;-78
2023/01/08 07:03:44;;;;;;;4.50;1.13;;;12.50;90.80;;;;;;7361086;19;20016;-78
2023/01/08 07:06:17;;;;;;;5.55;1.08;;;12.50;91.10;;;;;;7364279;19;20121;-77
2023/01/08 07:08:46;;;;;;;3.78;1.08;;;12.50;91.10;;;;;;7363234;19;20019;-78
2023/01/08 07:11:16;;;;;;;4.07;1.30;;;12.60;91.20;;;;;;7383601;19;20070;-78
2023/01/08 07:13:47;;;;;;;7.45;1.50;;;12.60;91.20;;;;;;7364145;19;20576;-78
2023/01/08 07:16:17;;;;;;;2.65;1.00;;;12.60;91.10;;;;;;7364060;19;20035;-78
2023/01/08 07:18:45;;;;;;;6.57;1.50;;;12.70;91.10;;;;;;7365032;19;20018;-77
2023/01/08 07:21:15;;;;;;;3.05;1.20;;;12.60;91.10;;;;;;7359780;19;20541;-78
2023/01/08 07:23:46;;;;;;;7.53;1.60;;;12.60;91.30;;;;;;7364581;19;20015;-78
2023/01/08 07:26:15;;;;;;;5.15;1.35;;;12.60;91.40;;;;;;7386858;19;20025;-78
2023/01/08 07:28:47;;;;;;;4.00;1.27;;;12.60;91.40;;;;;;7364742;19;20330;-78
2023/01/08 07:31:15;;;;;;;5.22;1.15;;;12.60;91.40;;;;;;7363088;19;20390;-78
2023/01/08 07:33:44;;;;;;;11.85;1.38;;;12.60;91.30;;;;;;7364035;19;20440;-78
2023/01/08 07:36:14;;;;;;;6.68;1.63;;;12.60;91.40;;;;;;7365014;19;20029;-78
2023/01/08 07:38:43;;;;;;;6.45;1.92;;;12.70;91.40;;;;;;7362737;19;20011;-78
2023/01/08 07:41:12;;;;;;;11.65;2.10;;;12.70;91.30;;;;;;7384820;19;20010;-77
2023/01/08 07:43:42;;;;;;;8.23;1.70;;;12.70;91.20;;;;;;7363500;19;20019;-78
2023/01/08 07:46:13;;;;;;;7.15;1.50;;;12.70;91.20;;;;;;7367734;19;20013;-78
2023/01/08 07:48:42;;;;;;;7.90;1.38;;;12.80;91.20;;;;;;7372435;19;20014;-78
2023/01/08 07:51:12;;;;;;;5.78;1.20;;;12.80;91.00;;;;;;7371392;19;20014;-79
2023/01/08 07:53:41;;;;;;;4.72;1.23;;;12.80;91.00;;;;;;7372778;19;20018;-78
2023/01/08 07:56:11;;;;;;;8.95;1.73;;;12.80;91.10;;;;;;7392523;19;20045;-79
2023/01/08 07:58:40;;;;;;;10.73;1.90;;;12.90;91.10;;;;;;7368249;19;20446;-77
2023/01/08 08:01:14;;;;;;;6.53;1.50;;;12.90;91.00;;;;;;7370950;19;20078;-78
2023/01/08 08:03:43;;;;;;;7.00;1.50;;;12.90;91.00;;;;;;7370599;19;20089;-78
2023/01/08 08:06:12;;;;;;;7.93;1.90;;;12.90;90.90;;;;;;7366653;19;20027;-78
2023/01/08 08:08:41;;;;;;;8.65;1.70;;;12.90;91.00;;;;;;7363913;19;20018;-78
2023/01/08 08:11:10;;;;;;;8.25;1.73;;;12.90;91.00;;;;;;7384188;19;20090;-78
2023/01/08 08:13:43;;;;;;;290.48;10.32;;;12.90;91.10;;;;;;7361275;19;20051;-78
2023/01/08 08:16:14;;;;;;;8.00;1.70;;;12.80;91.10;;;;;;7360391;19;20030;-78
2023/01/08 08:18:45;;;;;;;4.32;1.23;;;12.80;91.30;;;;;;7358675;19;20612;-78
2023/01/08 08:21:15;;;;;;;10.85;1.88;;;12.80;91.30;;;;;;7361453;19;20040;-78
2023/01/08 08:23:44;;;;;;;10.20;2.38;;;12.90;91.40;;;;;;7360945;19;20082;-78
2023/01/08 08:26:13;;;;;;;7.15;1.58;;;12.90;91.40;;;;;;7383303;19;20014;-79
2023/01/08 08:28:41;;;;;;;5.25;1.67;;;13.00;91.30;;;;;;7362307;19;20018;-78
2023/01/08 08:31:10;;;;;;;154.70;7.70;;;13.00;91.30;;;;;;7363269;19;20078;-79
2023/01/08 08:33:42;;;;;;;7.25;2.00;;;13.00;91.20;;;;;;7368531;19;20766;-78
2023/01/08 08:36:10;;;;;;;;;;;13.00;91.30;;;;;;7368636;19;20114;-78
2023/01/08 08:38:40;;;;;;;4.78;1.73;;;13.00;91.40;;;;;;7367642;19;20010;-78
2023/01/08 08:41:08;;;;;;;6.53;1.30;;;12.90;91.20;;;;;;7394249;19;20081;-78
2023/01/08 08:43:37;;;;;;;5.57;1.15;;;13.00;91.20;;;;;;7372615;19;20485;-78
2023/01/08 08:46:06;;;;;;;4.72;1.42;;;13.00;91.10;;;;;;7369299;19;20105;-78
2023/01/08 08:48:35;;;;;;;3.47;1.50;;;13.00;91.10;;;;;;7368993;19;20363;-78
2023/01/08 08:51:07;;;;;;;8.70;1.38;;;13.00;91.00;;;;;;7368510;19;20014;-78
2023/01/08 08:53:36;;;;;;;3.67;1.40;;;13.10;91.00;;;;;;7365530;19;20049;-78
2023/01/08 08:56:05;;;;;;;6.60;1.17;;;13.00;90.90;;;;;;7387764;19;20118;-79
2023/01/08 08:58:33;;;;;;;8.50;1.60;;;13.10;90.80;;;;;;7367185;19;20054;-79
2023/01/08 09:01:04;;;;;;;4.97;2.20;;;13.10;90.80;;;;;;7367475;19;20020;-79
2023/01/08 09:03:33;;;;;;;4.97;1.40;;;13.10;90.80;;;;;;7368219;19;20375;-78
2023/01/08 09:06:01;;;;;;;5.82;1.33;;;13.10;90.70;;;;;;7366150;19;20409;-78
2023/01/08 09:08:33;;;;;;;6.35;1.42;;;13.20;90.70;;;;;;7367202;19;20014;-78
2023/01/08 09:11:04;;;;;;;5.43;1.45;;;13.30;90.70;;;;;;7388883;19;20597;-78
2023/01/08 09:13:33;;;;;;;9.15;1.58;;;13.30;90.70;;;;;;7364009;19;20111;-79
2023/01/08 09:16:02;;;;;;;7.53;1.70;;;13.40;90.50;;;;;;7366851;19;20014;-79
2023/01/08 09:18:31;;;;;;;5.82;1.58;;;13.40;90.20;;;;;;7365965;19;20007;-79
2023/01/08 09:21:00;;;;;;;8.30;1.10;;;13.40;89.70;;;;;;7366579;19;20018;-79
2023/01/08 09:23:28;;;;;;;6.15;1.80;;;13.20;89.30;;;;;;7369778;19;20094;-78
2023/01/08 09:26:04;;;;;;;7.63;1.50;;;13.20;89.20;;;;;;7390841;19;20032;-78
2023/01/08 09:28:33;;;;;;;13.55;1.20;;;13.10;89.60;;;;;;7373838;19;20097;-78
2023/01/08 09:31:03;;;;;;;6.65;1.48;;;13.10;89.90;;;;;;7367935;19;20480;-78
2023/01/08 09:33:33;;;;;;;11.52;1.48;;;13.20;89.60;;;;;;7369352;19;20010;-79
2023/01/08 09:36:01;;;;;;;7.43;1.02;;;12.90;89.30;;;;;;7366288;19;20010;-79
2023/01/08 09:38:30;;;;;;;5.05;1.48;;;12.70;90.00;;;;;;7368279;19;20105;-79
2023/01/08 09:41:04;;;;;;;10.77;1.40;;;12.80;90.00;;;;;;7389325;19;20082;-80
2023/01/08 09:43:36;;;;;;;4.97;1.23;;;12.90;90.00;;;;;;7368262;19;20018;-80
2023/01/08 09:46:07;;;;;;;6.70;1.40;;;13.00;89.70;;;;;;7370435;19;20014;-79
2023/01/08 09:48:39;;;;;;;8.15;1.33;;;13.10;89.50;;;;;;7367615;19;20015;-80
2023/01/08 09:51:11;;;;;;;8.48;1.60;;;13.20;89.40;;;;;;7370548;19;20026;-80
2023/01/08 09:53:40;;;;;;;9.70;1.60;;;13.30;89.40;;;;;;7374818;19;20033;-80
2023/01/08 09:56:15;;;;;;;9.57;1.33;;;13.30;89.10;;;;;;7402140;19;20473;-80
2023/01/08 09:58:47;;;;;;;6.40;1.10;;;13.30;89.00;;;;;;7386989;19;20014;-80
2023/01/08 10:01:19;;;;;;;9.73;1.10;;;13.40;89.10;;;;;;7385462;19;20055;-79
2023/01/08 10:03:52;;;;;;;8.73;1.65;;;13.30;88.70;;;;;;7382420;19;20018;-78
2023/01/08 10:06:21;;;;;;;9.15;1.70;;;13.30;88.90;;;;;;7382417;19;20014;-80
2023/01/08 10:08:52;;;;;;;11.82;1.30;;;13.30;89.10;;;;;;7390771;19;20078;-80
2023/01/08 10:11:25;;;;;;;8.00;1.50;;;13.30;89.10;;;;;;7390202;19;20528;-78
2023/01/08 10:13:57;;;;;;;12.07;1.52;;;13.40;89.10;;;;;;7401546;19;20039;-78
2023/01/08 10:16:32;;;;;;;10.98;1.60;;;13.50;89.10;;;;;;7373888;19;20015;-78
2023/01/08 10:19:02;;;;;;;7.70;1.40;;;13.50;89.20;;;;;;7372475;19;20014;-80
2023/01/08 10:21:33;;;;;;;13.70;2.03;;;13.60;88.60;;;;;;7371774;19;20129;-79
2023/01/08 10:24:02;;;;;;;10.52;1.58;;;13.50;88.60;;;;;;7373237;19;20014;-80
2023/01/08 10:26:36;;;;;;;8.95;1.58;;;13.60;89.20;;;;;;7376880;19;20025;-80
2023/01/08 10:29:14;;;;;;;13.20;2.08;;;13.60;88.80;;;;;;7399164;19;20098;-79
2023/01/08 10:31:49;;;;;;;10.98;1.90;;;13.60;89.00;;;;;;7378484;19;20399;-79
2023/01/08 10:34:33;;;;;;;14.50;1.83;;;13.60;87.90;;;;;;7377639;19;20014;-78
2023/01/08 10:37:05;;;;;;;6.68;1.73;;;13.40;89.00;;;;;;7377466;19;20845;-79
2023/01/08 10:39:34;;;;;;;9.02;1.73;;;13.50;88.80;;;;;;7373899;19;20022;-79
2023/01/08 10:42:09;;;;;;;11.55;1.95;;;13.40;88.40;;;;;;7371775;19;20032;-79
2023/01/08 10:44:38;;;;;;;11.32;1.73;;;13.30;89.40;;;;;;7375153;19;20004;-78
2023/01/08 10:47:08;;;;;;;18.55;2.53;;;13.40;89.20;;;;;;7389310;19;20074;-79
2023/01/08 10:49:41;;;;;;;12.77;1.77;;;13.20;89.30;;;;;;7367789;19;20025;-79
2023/01/08 10:52:26;;;;;;;12.02;1.73;;;13.00;88.70;;;;;;7373791;19;20010;-79
2023/01/08 10:54:56;;;;;;;14.15;2.70;;;12.70;89.60;;;;;;7369602;19;20082;-79
2023/01/08 10:57:31;;;;;;;7.28;1.77;;;12.70;90.30;;;;;;7369781;19;20014;-79
2023/01/08 11:00:00;;;;;;;15.95;2.55;;;12.90;89.60;;;;;;7365025;19;20023;-79
2023/01/08 11:02:37;;;;;;;11.82;3.65;;;13.00;89.60;;;;;;7367682;19;20023;-79
2023/01/08 11:05:09;;;;;;;12.48;2.80;;;13.10;89.40;;;;;;7389790;19;20014;-79
2023/01/08 11:07:39;;;;;;;21.98;7.57;;;13.10;88.70;;;;;;7370615;19;20006;-78
2023/01/08 11:10:21;;;;;;;18.23;3.88;;;13.10;88.60;;;;;;7369845;19;20022;-79
2023/01/08 11:12:57;;;;;;;12.75;2.38;;;13.10;88.30;;;;;;7371856;19;20015;-79
2023/01/08 11:15:32;;;;;;;10.90;2.20;;;13.30;87.80;;;;;;7371159;19;20403;-80
2023/01/08 11:18:20;;;;;;;20.80;2.53;;;13.20;88.60;;;;;;7371187;19;20018;-80
2023/01/08 11:20:50;;;;;;;13.13;2.20;;;13.40;88.60;;;;;;7376741;19;20010;-82
2023/01/08 11:23:29;;;;;;;12.90;1.77;;;13.30;88.10;;;;;;7383603;19;20872;-84
2023/01/08 11:26:06;;;;;;;13.63;1.80;;;13.50;88.10;;;;;;7403218;19;20043;-86
2023/01/08 11:28:51;;;;;;;12.65;1.90;;;13.50;87.70;;;;;;7388354;19;20023;-85
2023/01/08 11:31:24;;;;;;;15.23;2.17;;;13.60;87.40;;;;;;7385385;19;20007;-87
2023/01/08 11:33:58;;;;;;;12.68;2.00;;;13.80;87.30;;;;;;7387412;19;20010;-89
2023/01/08 11:39:01;;;;;;;64.93;26.83;;;13.80;87.30;;;;;;7381430;19;20097;-80
2023/01/08 11:41:44;;;;;;;34.63;14.77;;;13.50;87.70;;;;;;7370509;19;20021;-79
2023/01/08 11:44:25;;;;;;;17.50;6.00;;;13.60;89.10;;;;;;7389264;19;20070;-79
2023/01/08 11:47:04;;;;;;;15.45;3.38;;;13.50;87.60;;;;;;7368439;19;20050;-79
2023/01/08 11:49:49;;;;;;;13.45;3.75;;;13.70;87.70;;;;;;7367957;19;20026;-81
2023/01/08 11:52:44;;;;;;;12.35;2.60;;;13.40;88.20;;;;;;7366464;19;20023;-82
2023/01/08 11:55:40;;;;;;;33.58;3.22;;;13.60;88.20;;;;;;7369115;19;20114;-82
2023/01/08 11:58:23;;;;;;;9.27;1.80;;;13.90;87.70;;;;;;7368290;19;20018;-83
2023/01/08 12:01:24;;;;;;;16.25;1.55;;;14.10;86.90;;;;;;7365926;19;20473;-83
2023/01/08 12:04:04;;;;;;;9.33;1.93;;;13.90;87.20;;;;;;7372005;19;20700;-83
2023/01/08 12:06:43;;;;;;;12.95;2.10;;;14.00;87.20;;;;;;7380659;19;20022;-83
2023/01/08 12:09:17;;;;;;;15.25;2.35;;;14.00;87.20;;;;;;7376281;19;20077;-83
2023/01/08 12:11:53;;;;;;;10.13;2.08;;;14.00;87.00;;;;;;7378648;19;20064;-83
2023/01/08 12:14:42;;;;;;;15.48;1.85;;;13.90;87.00;;;;;;7383114;19;20007;-83
2023/01/08 12:17:38;;;;;;;10.73;1.90;;;13.90;86.30;;;;;;7408109;19;20018;-83
2023/01/08 12:20:21;;;;;;;8.75;1.30;;;13.70;86.90;;;;;;7388901;19;20010;-85
2023/01/08 12:23:01;;;;;;;6.15;1.30;;;13.80;86.40;;;;;;7392472;19;20024;-80
2023/01/08 12:25:43;;;;;;;11.52;1.95;;;13.90;86.80;;;;;;7384826;19;20054;-81
2023/01/08 12:28:30;;;;;;;6.28;1.52;;;14.10;86.10;;;;;;7381120;19;20015;-84
2023/01/08 12:31:24;;;;;;;7.18;1.40;;;14.00;85.50;;;;;;7383782;19;20027;-83
2023/01/08 12:34:04;;;;;;;9.10;1.42;;;14.00;86.30;;;;;;7386606;19;20018;-85
2023/01/08 12:36:39;;;;;;;11.23;1.60;;;14.00;86.30;;;;;;7393647;19;20038;-85
2023/01/08 12:39:14;;;;;;;7.68;1.40;;;14.20;86.00;;;;;;7389295;19;20010;-84
2023/01/08 12:41:45;;;;;;;10.23;1.35;;;13.90;86.10;;;;;;7389617;19;20022;-84
2023/01/08 12:44:16;;;;;;;9.80;1.60;;;13.90;86.60;;;;;;7420849;19;20010;-84
2023/01/08 12:46:47;;;;;;;6.57;1.50;;;13.90;86.60;;;;;;7400293;19;20018;-84
2023/01/08 12:49:28;;;;;;;11.98;1.75;;;13.80;86.70;;;;;;7386333;19;20018;-84
2023/01/08 12:52:07;;;;;;;12.80;1.67;;;13.50;88.00;;;;;;7385048;19;20035;-83
2023/01/08 12:54:44;;;;;;;9.82;1.75;;;13.80;87.60;;;;;;7390340;19;20011;-85
2023/01/08 12:57:20;;;;;;;9.55;1.50;;;13.70;87.30;;;;;;7389728;19;20096;-84
2023/01/08 12:59:56;;;;;;;8.90;1.90;;;13.90;87.30;;;;;;7387610;19;20010;-84
2023/01/08 13:05:37;;;;;;;11.90;1.52;;;14.20;86.90;;;;;;7395731;19;20043;-83
2023/01/08 13:08:43;;;;;;;9.90;1.80;;;14.40;86.80;;;;;;7425484;19;20047;-85
2023/01/08 13:11:13;;;;;;;14.30;1.77;;;14.40;86.60;;;;;;7301626;19;2004682;-84
2023/01/08 13:13:44;;;;;;;4.90;1.67;;;14.50;85.50;;;;;;7422737;19;20732;-83
2023/01/08 13:16:23;;;;;;;10.63;2.33;;;14.40;85.10;;;;;;7394644;19;20010;-82